Time;durP1;ratioP1;P1;durP2;ratioP2;P2;SDS_P1;SDS_P2;PMS_P1;PMS_P2;Temp;Humidity;BMP_temperature;BMP_pressure;BME280_temperature;BME280_humidity;BME280_pressure;Samples;Min_cycle;Max_cycle;Signal;HPM_P1;HPM_P2
2023/07/17 00:00:06;;;;;;;4.53;3.70;;;;;;;21.62;52.09;98120.91;5020305;28;20828;-72
2023/07/17 00:02:33;;;;;;;4.93;3.67;;;;;;;21.46;53.12;98120.00;5026397;28;20471;-71
2023/07/17 00:05:00;;;;;;;3.87;3.43;;;;;;;21.42;53.33;98122.50;5028837;28;20872;-71
2023/07/17 00:07:28;;;;;;;4.40;3.80;;;;;;;21.29;54.28;98114.72;5028147;28;20474;-72
2023/07/17 00:09:55;;;;;;;4.83;3.80;;;;;;;21.35;54.35;98119.16;5026733;28;20479;-72
2023/07/17 00:12:22;;;;;;;5.77;3.80;;;;;;;21.32;54.58;98116.13;5027706;28;20459;-72
2023/07/17 00:14:49;;;;;;;5.27;4.20;;;;;;;20.96;56.05;98120.59;5027986;28;20510;-72
2023/07/17 00:17:16;;;;;;;4.40;4.00;;;;;;;21.06;55.86;98112.41;5021026;28;20596;-71
2023/07/17 00:19:53;;;;;;;4.03;3.30;;;;;;;21.30;53.97;98116.38;5028929;28;20455;-72
2023/07/17 00:22:20;;;;;;;4.50;3.40;;;;;;;21.12;55.11;98119.56;5028174;28;20562;-71
2023/07/17 00:24:49;;;;;;;4.10;3.80;;;;;;;20.67;56.87;98125.66;5031828;28;20460;-71
2023/07/17 00:27:16;;;;;;;5.83;3.63;;;;;;;20.52;58.37;98133.78;5027038;28;20480;-71
2023/07/17 00:29:44;;;;;;;4.90;4.00;;;;;;;20.55;58.14;98127.75;5028963;28;20464;-71
2023/07/17 00:32:10;;;;;;;6.03;3.83;;;;;;;20.39;58.08;98127.66;5028660;28;20519;-71
2023/07/17 00:34:37;;;;;;;3.93;3.63;;;;;;;20.59;58.18;98126.97;5021730;28;20460;-70
2023/07/17 00:37:04;;;;;;;4.70;3.97;;;;;;;20.81;57.29;98118.56;5026643;28;20497;-71
2023/07/17 00:39:31;;;;;;;5.37;3.67;;;;;;;20.72;57.51;98110.03;5027281;28;20529;-71
2023/07/17 00:42:01;;;;;;;4.10;3.70;;;;;;;20.93;56.71;98104.63;5027697;28;20452;-71
2023/07/17 00:44:28;;;;;;;4.07;3.67;;;;;;;20.68;58.05;98117.13;5024540;28;20546;-71
2023/07/17 00:46:55;;;;;;;3.73;2.93;;;;;;;21.21;55.78;98129.00;5028206;28;20939;-71
2023/07/17 00:49:24;;;;;;;3.90;3.40;;;;;;;21.25;55.63;98130.13;5027920;28;20462;-71
2023/07/17 00:51:52;;;;;;;4.00;3.53;;;;;;;21.38;54.87;98107.63;5018358;28;20470;-72
2023/07/17 00:54:19;;;;;;;4.27;3.37;;;;;;;21.56;54.09;98119.22;5027410;28;20456;-71
2023/07/17 00:56:46;;;;;;;4.20;3.53;;;;;;;21.12;55.81;98116.81;5027126;28;20487;-71
2023/07/17 00:59:15;;;;;;;3.27;2.97;;;;;;;21.28;55.25;98106.75;5026270;28;20811;-71
2023/07/17 01:01:42;;;;;;;4.73;3.47;;;;;;;21.52;54.17;98107.91;5023032;28;20573;-70
2023/07/17 01:04:09;;;;;;;5.03;3.87;;;;;;;21.46;53.25;98101.56;5027427;28;20466;-72
2023/07/17 01:06:38;;;;;;;3.70;3.10;;;;;;;21.13;53.06;98104.69;5019695;28;20594;-71
2023/07/17 01:09:06;;;;;;;4.30;3.43;;;;;;;21.35;52.87;98116.41;5025724;28;20472;-72
2023/07/17 01:11:32;;;;;;;4.30;3.23;;;;;;;21.40;53.34;98124.69;5026792;28;20458;-71
2023/07/17 01:14:00;;;;;;;5.13;3.23;;;;;;;21.21;53.75;98119.91;5027987;28;20454;-71
2023/07/17 01:16:28;;;;;;;4.90;3.60;;;;;;;21.07;53.98;98123.16;5026553;28;20538;-71
2023/07/17 01:18:54;;;;;;;3.20;2.90;;;;;;;21.28;53.84;98115.81;5025367;28;20490;-72
2023/07/17 01:21:26;;;;;;;5.03;3.33;;;;;;;21.38;53.86;98115.88;5026229;28;20460;-71
2023/07/17 01:23:56;;;;;;;4.70;3.03;;;;;;;21.19;54.88;98122.91;5019829;28;20474;-71
2023/07/17 01:26:23;;;;;;;3.40;3.10;;;;;;;21.11;55.75;98137.22;5025640;28;20452;-72
2023/07/17 01:28:50;;;;;;;4.13;3.57;;;;;;;20.90;56.64;98132.66;5023907;28;20950;-72
2023/07/17 01:31:17;;;;;;;3.70;3.40;;;;;;;20.85;56.33;98146.38;5026205;28;20446;-71
2023/07/17 01:33:44;;;;;;;3.80;3.30;;;;;;;20.95;56.14;98135.44;5027732;28;20459;-72
2023/07/17 01:36:12;;;;;;;3.13;2.80;;;;;;;20.99;56.14;98131.06;5024823;28;20458;-72
2023/07/17 01:38:39;;;;;;;4.50;3.20;;;;;;;21.01;56.22;98140.72;5024014;28;20483;-71
2023/07/17 01:41:07;;;;;;;3.93;3.33;;;;;;;21.13;55.85;98137.75;5019007;28;20503;-71
2023/07/17 01:43:34;;;;;;;5.90;3.23;;;;;;;20.99;55.71;98136.59;5024696;28;22374;-71
2023/07/17 01:46:02;;;;;;;5.33;3.50;;;;;;;21.01;55.68;98128.88;5026505;28;20488;-71
2023/07/17 01:48:29;;;;;;;4.53;3.27;;;;;;;20.91;56.06;98135.16;5026627;28;20487;-71
2023/07/17 01:50:55;;;;;;;4.37;3.00;;;;;;;20.85;56.45;98135.38;5024036;28;20476;-71
2023/07/17 01:53:22;;;;;;;4.50;2.90;;;;;;;20.79;56.40;98132.59;5024904;28;20490;-72
2023/07/17 01:55:49;;;;;;;3.90;2.97;;;;;;;20.99;55.67;98137.41;5026900;28;20487;-70
2023/07/17 01:58:17;;;;;;;3.10;2.90;;;;;;;20.96;56.08;98132.44;5025756;28;20829;-71
2023/07/17 02:00:45;;;;;;;2.63;2.43;;;;;;;20.89;56.83;98134.59;5018654;28;20457;-72
2023/07/17 02:03:12;;;;;;;5.83;3.43;;;;;;;20.73;56.51;98138.34;5024285;28;20495;-72
2023/07/17 02:05:39;;;;;;;4.50;3.00;;;;;;;20.99;55.63;98136.59;5027756;28;20460;-72
2023/07/17 02:08:06;;;;;;;3.40;2.77;;;;;;;21.16;55.21;98131.69;5027028;28;20495;-70
2023/07/17 02:10:33;;;;;;;3.20;2.90;;;;;;;21.20;55.60;98143.84;5023713;28;20993;-71
2023/07/17 02:13:00;;;;;;;3.87;3.07;;;;;;;21.23;55.50;98143.34;5025997;28;20458;-72
2023/07/17 02:15:28;;;;;;;5.00;3.27;;;;;;;21.19;55.71;98135.84;5027270;28;20446;-71
2023/07/17 02:17:55;;;;;;;3.70;3.40;;;;;;;20.93;57.02;98127.47;5020919;28;20907;-71
2023/07/17 02:20:22;;;;;;;4.10;3.70;;;;;;;20.74;58.11;98140.84;5028134;28;20457;-71
2023/07/17 02:22:48;;;;;;;3.60;3.20;;;;;;;20.85;57.80;98141.72;5028606;28;20456;-72
2023/07/17 02:25:16;;;;;;;3.83;2.93;;;;;;;21.18;56.90;98140.53;5029128;28;20464;-71
2023/07/17 02:27:42;;;;;;;5.23;3.33;;;;;;;20.96;57.64;98145.38;5026791;28;20469;-72
2023/07/17 02:30:10;;;;;;;6.27;3.00;;;;;;;21.05;57.93;98152.03;5029588;28;20467;-71
2023/07/17 02:32:38;;;;;;;5.53;3.63;;;;;;;20.68;58.90;98146.56;5029422;28;20465;-72
2023/07/17 02:35:06;;;;;;;6.40;3.67;;;;;;;20.78;58.58;98150.22;5019967;28;20467;-72
2023/07/17 02:37:33;;;;;;;3.63;3.30;;;;;;;20.83;58.21;98154.06;5028887;28;20828;-72
2023/07/17 02:40:00;;;;;;;3.50;3.13;;;;;;;20.84;57.52;98158.50;5028234;28;20456;-71
2023/07/17 02:42:27;;;;;;;3.70;3.10;;;;;;;20.76;57.95;98152.41;5030143;28;20500;-71
2023/07/17 02:44:53;;;;;;;4.23;3.50;;;;;;;20.35;59.87;98159.50;5028541;28;20503;-71
2023/07/17 02:47:20;;;;;;;3.53;3.23;;;;;;;20.61;58.39;98163.28;5030248;28;20477;-71
2023/07/17 02:49:48;;;;;;;4.97;3.60;;;;;;;20.45;59.22;98167.03;5029332;28;20948;-72
2023/07/17 02:52:15;;;;;;;3.90;3.57;;;;;;;20.54;57.60;98162.69;5027659;28;20848;-71
2023/07/17 02:54:43;;;;;;;3.20;2.90;;;;;;;20.79;57.14;98176.63;5019888;28;20465;-73
2023/07/17 02:57:10;;;;;;;4.37;3.20;;;;;;;20.75;56.57;98172.75;5029215;28;20956;-72
2023/07/17 02:59:37;;;;;;;4.17;3.17;;;;;;;20.79;56.00;98175.81;5030428;28;20480;-72
2023/07/17 03:02:05;;;;;;;3.57;3.27;;;;;;;20.64;56.83;98183.94;5027921;28;20571;-72
2023/07/17 03:04:32;;;;;;;5.07;3.40;;;;;;;20.52;57.29;98177.78;5026842;28;20457;-72
2023/07/17 03:07:00;;;;;;;4.50;3.07;;;;;;;20.52;57.32;98191.53;5031869;28;20845;-71
2023/07/17 03:09:28;;;;;;;4.00;3.50;;;;;;;20.44;57.91;98187.38;5026076;28;20531;-72
2023/07/17 03:11:54;;;;;;;3.70;3.27;;;;;;;20.31;58.88;98190.50;5034882;28;20458;-71
2023/07/17 03:14:21;;;;;;;5.20;3.73;;;;;;;20.37;58.90;98189.47;5029890;28;20449;-72
2023/07/17 03:16:48;;;;;;;4.60;3.40;;;;;;;20.38;59.33;98193.91;5030638;28;20563;-72
2023/07/17 03:19:14;;;;;;;4.93;3.83;;;;;;;20.37;58.78;98192.22;5029268;28;21009;-72
2023/07/17 03:21:41;;;;;;;3.37;3.07;;;;;;;20.41;59.13;98188.72;5029759;28;20988;-71
2023/07/17 03:24:09;;;;;;;4.37;3.07;;;;;;;20.30;59.63;98188.84;5029511;28;20481;-72
2023/07/17 03:26:36;;;;;;;4.17;2.83;;;;;;;20.45;57.92;98192.63;5021178;28;20887;-72
2023/07/17 03:29:04;;;;;;;4.33;3.30;;;;;;;20.09;58.90;98190.59;5025633;28;20460;-72
2023/07/17 03:31:31;;;;;;;3.33;2.93;;;;;;;20.17;59.91;98194.75;5026963;28;20457;-72
2023/07/17 03:33:57;;;;;;;5.13;3.90;;;;;;;19.99;60.58;98198.72;5029721;28;20491;-72
2023/07/17 03:36:24;;;;;;;5.20;3.50;;;;;;;19.92;60.48;98204.41;5025247;28;21529;-72
2023/07/17 03:38:51;;;;;;;3.50;3.20;;;;;;;20.05;60.25;98204.00;5025810;28;20501;-72
2023/07/17 03:41:21;;;;;;;3.40;3.10;;;;;;;20.22;60.07;98203.06;5027296;28;20614;-72
2023/07/17 03:43:48;;;;;;;3.63;3.33;;;;;;;20.31;59.96;98193.25;5021097;28;21306;-71
2023/07/17 03:46:15;;;;;;;4.63;3.50;;;;;;;20.05;60.60;98192.19;5027290;28;20472;-71
2023/07/17 03:48:41;;;;;;;4.40;3.90;;;;;;;19.92;61.39;98200.84;5027376;28;20452;-71
2023/07/17 03:51:08;;;;;;;6.03;3.73;;;;;;;19.59;62.49;98199.09;5028957;28;20991;-70
2023/07/17 03:53:35;;;;;;;4.97;3.83;;;;;;;19.64;62.33;98208.22;5027854;28;20467;-70
2023/07/17 03:56:02;;;;;;;4.07;3.60;;;;;;;19.64;62.39;98199.16;5026271;28;20566;-70
2023/07/17 03:58:30;;;;;;;4.13;3.50;;;;;;;19.50;62.86;98200.56;5026554;28;21160;-70
2023/07/17 04:00:57;;;;;;;4.70;3.30;;;;;;;19.79;61.79;98197.44;5019092;28;20978;-71
2023/07/17 04:03:24;;;;;;;3.63;3.33;;;;;;;19.73;61.30;98203.94;5027198;28;20484;-71
2023/07/17 04:05:50;;;;;;;5.50;3.57;;;;;;;19.85;60.55;98209.28;5028445;28;20492;-70
2023/07/17 04:08:17;;;;;;;4.27;3.50;;;;;;;19.90;60.53;98205.75;5028533;28;20582;-71
2023/07/17 04:10:44;;;;;;;3.50;3.20;;;;;;;19.78;61.17;98208.66;5022981;28;20543;-71
2023/07/17 04:13:11;;;;;;;4.70;3.77;;;;;;;19.97;60.68;98212.72;5027851;28;20838;-71
2023/07/17 04:15:39;;;;;;;3.80;3.50;;;;;;;19.99;60.54;98216.03;5028055;28;20460;-71
2023/07/17 04:18:06;;;;;;;4.00;3.03;;;;;;;19.87;61.07;98218.09;5027452;28;20456;-70
2023/07/17 04:20:33;;;;;;;3.90;3.47;;;;;;;19.61;62.40;98216.13;5017856;28;20998;-71
2023/07/17 04:23:00;;;;;;;5.13;3.50;;;;;;;19.30;64.61;98218.47;5027091;28;20982;-70
2023/07/17 04:25:26;;;;;;;4.80;3.87;;;;;;;19.08;65.60;98220.34;5028890;28;20455;-71
2023/07/17 04:27:54;;;;;;;6.03;4.30;;;;;;;19.16;65.39;98222.66;5027905;28;20547;-71
2023/07/17 04:30:21;;;;;;;6.27;3.97;;;;;;;19.44;64.31;98224.41;5024140;28;20880;-72
2023/07/17 04:32:51;;;;;;;3.97;3.57;;;;;;;19.53;64.22;98227.56;5025027;28;20467;-72
2023/07/17 04:35:18;;;;;;;3.90;3.60;;;;;;;19.37;64.53;98232.84;5028589;28;20546;-71
2023/07/17 04:37:45;;;;;;;4.57;4.03;;;;;;;19.42;64.95;98229.34;5027425;28;20571;-77
2023/07/17 04:40:13;;;;;;;5.60;4.03;;;;;;;19.25;65.41;98236.75;5007114;28;20966;-79
2023/07/17 04:42:40;;;;;;;4.80;4.10;;;;;;;19.21;65.63;98235.59;5018599;28;20562;-81
2023/07/17 04:45:08;;;;;;;4.97;3.97;;;;;;;19.08;66.22;98237.66;5020855;28;20548;-78
2023/07/17 04:47:35;;;;;;;5.07;4.57;;;;;;;19.17;66.02;98245.47;5023888;28;20832;-78
2023/07/17 04:50:03;;;;;;;5.00;4.00;;;;;;;19.25;65.89;98254.06;5019229;28;20487;-80
2023/07/17 04:52:30;;;;;;;4.60;4.20;;;;;;;19.07;66.74;98240.63;5016823;28;20982;-78
2023/07/17 04:54:57;;;;;;;4.83;4.37;;;;;;;19.20;66.69;98251.25;5024091;28;20531;-78
2023/07/17 04:57:24;;;;;;;5.00;4.50;;;;;;;19.25;66.55;98247.75;5026877;28;20479;-78
2023/07/17 04:59:50;;;;;;;5.13;4.63;;;;;;;19.26;66.36;98247.50;5028020;28;20523;-79
2023/07/17 05:02:17;;;;;;;6.20;4.50;;;;;;;19.15;67.03;98247.63;5023503;28;20556;-78
2023/07/17 05:04:44;;;;;;;5.13;4.53;;;;;;;19.32;66.79;98246.47;4964000;28;20487;-80
2023/07/17 05:07:12;;;;;;;5.27;4.63;;;;;;;19.44;66.47;98247.22;4988773;28;20491;-80
2023/07/17 05:09:39;;;;;;;5.90;4.77;;;;;;;19.44;66.76;98241.72;5015108;28;20448;-75
2023/07/17 05:12:06;;;;;;;5.40;4.50;;;;;;;19.34;67.49;98249.81;5013142;28;20527;-80
2023/07/17 05:14:33;;;;;;;6.30;4.90;;;;;;;19.33;67.55;98253.63;5023900;28;20483;-81
2023/07/17 05:17:00;;;;;;;6.93;4.63;;;;;;;19.49;67.23;98237.38;5015217;28;20857;-79
2023/07/17 05:19:28;;;;;;;6.07;5.10;;;;;;;19.58;67.15;98239.44;5018292;28;21057;-81
2023/07/17 05:21:55;;;;;;;5.30;4.70;;;;;;;19.64;66.68;98245.84;5014290;28;20553;-82
2023/07/17 05:24:24;;;;;;;5.73;4.70;;;;;;;19.72;66.53;98253.63;5012339;28;20999;-82
2023/07/17 05:26:50;;;;;;;6.47;4.43;;;;;;;19.74;66.88;98251.47;5013591;28;20477;-82
2023/07/17 05:29:18;;;;;;;8.10;4.77;;;;;;;19.78;66.64;98241.63;5016927;28;20580;-81
2023/07/17 05:31:44;;;;;;;5.77;5.10;;;;;;;19.96;66.41;98252.28;5010631;28;22770;-81
2023/07/17 05:34:11;;;;;;;5.20;4.60;;;;;;;20.21;65.41;98254.47;5017531;28;20464;-82
2023/07/17 05:36:38;;;;;;;5.70;5.10;;;;;;;20.33;65.01;98255.16;5013181;28;20477;-79
2023/07/17 05:39:05;;;;;;;10.47;5.03;;;;;;;20.50;64.11;98254.22;5024834;28;21035;-81
2023/07/17 05:41:33;;;;;;;5.20;4.10;;;;;;;20.66;63.85;98258.78;5016855;28;20468;-81
2023/07/17 05:44:00;;;;;;;4.40;4.00;;;;;;;20.42;64.22;98261.03;5020358;28;20452;-83
2023/07/17 05:46:27;;;;;;;5.03;4.50;;;;;;;20.43;64.25;98257.22;5023223;28;20487;-82
2023/07/17 05:48:54;;;;;;;5.17;4.53;;;;;;;20.43;64.57;98265.47;5028451;28;20470;-79
2023/07/17 05:51:22;;;;;;;5.70;4.80;;;;;;;20.54;63.45;98258.09;5017513;28;20567;-82
2023/07/17 05:53:49;;;;;;;5.50;4.70;;;;;;;20.49;63.82;98272.63;5025897;28;21028;-83
2023/07/17 05:56:15;;;;;;;4.77;3.97;;;;;;;20.70;62.73;98271.75;5039319;28;20472;-82
2023/07/17 05:58:44;;;;;;;4.63;4.03;;;;;;;20.76;62.80;98262.47;5038340;28;20467;-82
2023/07/17 06:01:11;;;;;;;4.87;3.90;;;;;;;20.98;61.50;98261.50;5035876;28;20870;-82
2023/07/17 06:03:38;;;;;;;4.47;4.03;;;;;;;20.97;60.25;98270.88;5024756;28;20949;-81
2023/07/17 06:06:05;;;;;;;7.10;4.17;;;;;;;21.01;60.95;98277.50;5029367;28;20569;-82
2023/07/17 06:08:32;;;;;;;4.30;3.90;;;;;;;21.23;60.26;98281.00;5030230;28;20534;-80
2023/07/17 06:10:58;;;;;;;4.20;3.87;;;;;;;21.35;60.27;98284.38;5034411;28;20541;-81
2023/07/17 06:13:25;;;;;;;6.37;4.83;;;;;;;21.45;59.37;98289.94;5029346;28;20498;-80
2023/07/17 06:15:53;;;;;;;5.40;4.50;;;;;;;21.26;60.00;98285.97;5027846;28;20564;-81
2023/07/17 06:18:20;;;;;;;4.50;4.10;;;;;;;21.51;59.24;98296.31;5020585;28;20542;-81
2023/07/17 06:20:48;;;;;;;6.57;4.37;;;;;;;21.30;59.56;98295.38;5011056;28;20487;-81
2023/07/17 06:23:14;;;;;;;4.90;4.17;;;;;;;21.50;58.66;98297.41;5018803;28;20458;-81
2023/07/17 06:25:41;;;;;;;4.60;4.17;;;;;;;21.43;58.71;98303.19;5017828;28;20467;-80
2023/07/17 06:28:09;;;;;;;4.77;4.20;;;;;;;21.55;57.96;98302.13;5027216;28;20458;-81
2023/07/17 06:30:35;;;;;;;6.90;4.40;;;;;;;21.65;57.46;98302.19;5028716;28;20860;-80
2023/07/17 06:33:04;;;;;;;4.47;4.07;;;;;;;22.06;56.65;98293.06;5029871;28;20459;-81
2023/07/17 06:35:32;;;;;;;6.97;3.73;;;;;;;22.25;55.35;98303.56;5018214;28;20594;-82
2023/07/17 06:37:58;;;;;;;4.87;3.83;;;;;;;22.25;55.01;98298.06;5015633;28;20470;-82
2023/07/17 06:40:25;;;;;;;5.50;3.87;;;;;;;22.42;54.57;98298.66;5025429;28;20522;-82
2023/07/17 06:42:52;;;;;;;4.50;4.00;;;;;;;22.33;54.34;98300.28;5026075;28;20459;-81
2023/07/17 06:45:19;;;;;;;5.93;4.40;;;;;;;22.43;54.59;98297.53;5019243;28;21053;-81
2023/07/17 06:47:46;;;;;;;7.80;4.63;;;;;;;22.51;55.51;98299.78;5017200;28;20490;-81
2023/07/17 06:50:14;;;;;;;3.20;2.90;;;;;;;22.70;49.45;98294.59;5021693;28;21049;-81
2023/07/17 06:52:41;;;;;;;6.53;4.07;;;;;;;22.52;47.89;98297.84;5025259;28;20571;-81
2023/07/17 06:55:09;;;;;;;5.57;3.30;;;;;;;22.38;49.09;98297.56;5026351;28;20964;-81
2023/07/17 06:57:36;;;;;;;4.80;3.90;;;;;;;22.62;48.67;98295.94;5012459;28;20530;-82
2023/07/17 07:00:05;;;;;;;5.80;3.50;;;;;;;22.63;48.72;98294.84;5017530;28;20498;-83
2023/07/17 07:02:32;;;;;;;5.60;3.63;;;;;;;22.85;48.09;98293.78;5022482;28;20555;-83
2023/07/17 07:04:59;;;;;;;7.83;3.90;;;;;;;22.99;47.88;98297.66;5018918;28;20461;-79
2023/07/17 07:07:27;;;;;;;3.40;3.10;;;;;;;22.91;47.72;98289.91;5013951;28;20539;-80
2023/07/17 07:09:54;;;;;;;5.13;3.50;;;;;;;23.24;47.45;98289.34;5005979;28;20974;-69
2023/07/17 07:12:21;;;;;;;4.03;3.50;;;;;;;23.53;47.06;98286.00;5015852;28;20498;-80
2023/07/17 07:14:48;;;;;;;5.20;3.97;;;;;;;23.48;45.47;98291.50;5026301;28;20467;-81
2023/07/17 07:17:15;;;;;;;4.93;4.00;;;;;;;23.52;46.08;98295.38;5007611;28;20573;-81
2023/07/17 07:19:43;;;;;;;5.60;3.97;;;;;;;23.67;45.73;98287.09;5015965;28;20496;-80
2023/07/17 07:22:09;;;;;;;6.00;4.10;;;;;;;23.59;45.43;98287.66;5022600;28;21256;-80
2023/07/17 07:24:41;;;;;;;4.57;3.70;;;;;;;23.62;43.59;98292.63;5022438;28;20532;-81
2023/07/17 07:27:08;;;;;;;7.50;4.33;;;;;;;23.81;43.04;98296.44;5015627;28;20456;-80
2023/07/17 09:14:22;;;;;;;5.47;4.97;;;;;;;26.92;31.36;98312.72;5267658;22;20498;-79
2023/07/17 09:16:50;;;;;;;4.70;4.30;;;;;;;27.09;31.36;98298.31;5047883;28;20513;-75
2023/07/17 09:19:17;;;;;;;5.10;4.60;;;;;;;27.63;31.25;98296.81;5050511;28;20470;-74
2023/07/17 09:21:43;;;;;;;4.50;4.10;;;;;;;27.84;30.37;98300.06;5047749;28;20572;-80
2023/07/17 09:24:11;;;;;;;5.10;4.60;;;;;;;27.95;30.65;98305.09;5039424;28;20934;-72
2023/07/17 09:26:38;;;;;;;5.03;4.63;;;;;;;27.63;29.54;98297.63;5035461;28;20456;-78
2023/07/17 09:29:05;;;;;;;4.90;4.50;;;;;;;27.29;30.76;98306.28;5032122;28;20451;-78
2023/07/17 09:31:33;;;;;;;5.13;4.60;;;;;;;27.51;30.15;98296.47;5038339;28;20483;-77
2023/07/17 09:34:01;;;;;;;6.90;4.60;;;;;;;27.85;30.00;98302.53;5034537;28;20578;-79
2023/07/17 09:36:28;;;;;;;4.77;4.37;;;;;;;27.97;30.72;98300.03;5044003;28;20530;-79
2023/07/17 09:38:57;;;;;;;6.50;5.50;;;;;;;28.35;29.43;98302.63;5036228;28;20550;-79
2023/07/17 09:41:25;;;;;;;5.67;4.70;;;;;;;28.03;29.44;98297.97;5040309;28;20599;-80
2023/07/17 09:43:53;;;;;;;5.70;4.53;;;;;;;27.64;29.46;98298.47;5035365;28;21060;-80
2023/07/17 09:46:20;;;;;;;4.73;4.33;;;;;;;28.25;29.24;98302.88;5020876;28;20467;-78
2023/07/17 09:48:50;;;;;;;5.87;4.70;;;;;;;28.69;29.01;98314.09;5036088;28;20471;-79
2023/07/17 09:51:18;;;;;;;5.00;4.50;;;;;;;29.41;28.11;98300.13;5035322;28;20458;-79
2023/07/17 09:53:46;;;;;;;5.43;4.70;;;;;;;28.00;29.01;98304.97;5040516;28;20616;-79
2023/07/17 09:56:15;;;;;;;4.97;4.57;;;;;;;28.75;28.78;98310.06;5037102;28;20922;-79
2023/07/17 09:58:45;;;;;;;5.83;4.80;;;;;;;28.52;28.54;98293.63;5043051;28;20806;-79
2023/07/17 10:01:16;;;;;;;4.80;4.40;;;;;;;28.84;28.40;98301.00;5041301;28;20488;-77
2023/07/17 10:03:45;;;;;;;4.67;4.30;;;;;;;28.52;28.57;98297.25;5033750;28;20532;-79
2023/07/17 10:06:15;;;;;;;5.07;4.40;;;;;;;28.91;29.42;98295.81;5030163;28;21007;-81
2023/07/17 10:08:44;;;;;;;6.33;4.60;;;;;;;29.56;28.80;98312.06;5027266;28;20474;-77
2023/07/17 10:11:11;;;;;;;5.33;4.83;;;;;;;29.43;27.86;98302.63;5031429;28;20561;-77
2023/07/17 10:13:38;;;;;;;5.23;4.73;;;;;;;28.83;28.63;98307.72;5034108;28;21012;-76
2023/07/17 10:16:05;;;;;;;5.80;5.17;;;;;;;28.21;29.07;98307.41;5031472;28;20578;-78
2023/07/17 10:18:32;;;;;;;5.17;4.67;;;;;;;28.06;29.94;98306.53;5033820;28;20489;-76
2023/07/17 10:21:01;;;;;;;6.37;4.60;;;;;;;27.93;29.88;98309.34;5035119;28;20528;-77
2023/07/17 10:23:30;;;;;;;5.63;5.13;;;;;;;28.01;30.58;98300.25;5032801;28;20886;-81
2023/07/17 10:26:07;;;;;;;5.83;4.67;;;;;;;27.18;31.83;98302.06;5023764;28;20837;-79
2023/07/17 10:28:36;;;;;;;6.67;5.30;;;;;;;28.25;29.57;98302.88;5034530;28;20497;-78
2023/07/17 10:31:09;;;;;;;6.80;5.10;;;;;;;27.81;29.71;98301.50;5022317;28;20466;-77
2023/07/17 10:33:37;;;;;;;6.60;5.27;;;;;;;28.38;29.09;98293.66;5026283;28;20477;-74
2023/07/17 10:36:04;;;;;;;4.77;4.37;;;;;;;28.72;29.41;98285.63;5020132;28;20958;-73
2023/07/17 10:38:36;;;;;;;5.40;4.90;;;;;;;28.58;28.61;98292.38;5026927;28;21095;-77
2023/07/17 10:41:05;;;;;;;5.30;4.73;;;;;;;27.50;30.68;98294.81;5036414;28;20540;-77
2023/07/17 10:43:32;;;;;;;7.03;4.73;;;;;;;27.41;31.38;98292.75;5035682;28;20580;-78
2023/07/17 10:45:59;;;;;;;5.57;5.07;;;;;;;26.67;32.95;98288.09;5036898;28;20509;-80
2023/07/17 10:48:27;;;;;;;5.93;4.73;;;;;;;27.63;31.87;98280.94;5033544;28;20612;-79
2023/07/17 10:50:57;;;;;;;5.37;4.87;;;;;;;27.75;32.17;98283.25;5042961;28;20459;-80
2023/07/17 10:53:24;;;;;;;5.27;4.77;;;;;;;27.21;32.73;98287.56;5040617;28;20475;-77
2023/07/17 10:55:52;;;;;;;6.40;5.17;;;;;;;27.25;32.98;98279.44;5035209;28;20463;-77
2023/07/17 10:58:20;;;;;;;5.50;4.87;;;;;;;26.00;34.67;98290.94;5041056;28;20546;-76
2023/07/17 11:00:47;;;;;;;5.90;5.23;;;;;;;26.04;34.00;98288.38;5035654;28;20985;-73
2023/07/17 11:03:15;;;;;;;5.10;4.63;;;;;;;27.02;34.17;98282.00;5039799;28;20571;-72
2023/07/17 11:05:42;;;;;;;5.27;4.77;;;;;;;27.84;31.70;98278.63;5037120;28;20505;-67
2023/07/17 11:08:10;;;;;;;6.77;5.77;;;;;;;27.32;31.87;98279.84;5041878;28;20519;-67
2023/07/17 11:10:40;;;;;;;5.60;5.10;;;;;;;26.95;33.29;98275.19;5039067;28;20618;-68
2023/07/17 11:13:09;;;;;;;5.43;4.93;;;;;;;26.41;33.63;98274.59;5023538;28;20473;-67
2023/07/17 11:15:37;;;;;;;5.40;4.90;;;;;;;26.20;33.95;98267.66;5041887;28;20463;-67
2023/07/17 11:18:05;;;;;;;6.63;4.83;;;;;;;26.61;33.82;98273.50;5040560;28;20467;-74
2023/07/17 11:20:33;;;;;;;5.33;4.83;;;;;;;26.81;34.35;98271.50;5038591;28;21103;-74
2023/07/17 11:23:00;;;;;;;5.90;5.30;;;;;;;26.65;34.59;98271.75;5038262;28;20482;-74
2023/07/17 11:25:29;;;;;;;6.13;5.27;;;;;;;26.68;33.76;98273.91;5038696;28;20459;-74
2023/07/17 11:27:57;;;;;;;5.37;4.87;;;;;;;27.04;34.18;98265.88;5035861;28;20448;-74
2023/07/17 11:30:27;;;;;;;5.10;4.60;;;;;;;27.80;32.68;98260.88;5033444;28;20463;-74
2023/07/17 11:33:02;;;;;;;5.50;5.00;;;;;;;27.37;32.82;98257.50;5038859;28;20908;-74
2023/07/17 11:35:43;;;;;;;6.17;4.90;;;;;;;26.95;33.49;98256.59;5034911;28;21112;-75
2023/07/17 11:38:11;;;;;;;5.23;4.77;;;;;;;26.72;32.54;98258.31;5038659;28;20463;-75
2023/07/17 11:40:55;;;;;;;6.30;5.03;;;;;;;26.06;34.15;98237.03;5041551;28;20483;-74
2023/07/17 11:43:29;;;;;;;6.57;5.40;;;;;;;26.36;34.44;98258.00;5038286;28;20528;-75
2023/07/17 11:46:01;;;;;;;5.30;4.80;;;;;;;26.25;34.39;98252.88;5040990;28;21312;-74
2023/07/17 11:48:29;;;;;;;5.03;4.60;;;;;;;26.55;34.32;98252.47;5036679;28;21053;-75
2023/07/17 11:50:56;;;;;;;8.10;5.80;;;;;;;26.99;33.70;98245.66;5031438;28;20443;-75
2023/07/17 11:53:23;;;;;;;5.60;5.07;;;;;;;27.92;32.91;98246.47;5037913;28;20566;-73
2023/07/17 11:55:51;;;;;;;6.17;4.37;;;;;;;28.85;30.47;98242.16;5040641;28;20882;-77
2023/07/17 11:58:19;;;;;;;6.67;4.80;;;;;;;29.30;29.54;98242.94;5027178;28;20485;-81
2023/07/17 12:00:48;;;;;;;6.23;4.37;;;;;;;30.07;29.29;98245.28;5037623;28;20475;-81
2023/07/17 12:03:16;;;;;;;5.53;4.70;;;;;;;31.06;27.73;98234.38;5031968;28;20559;-73
2023/07/17 12:05:43;;;;;;;7.00;5.27;;;;;;;30.42;28.18;98245.38;5032918;28;20516;-74
2023/07/17 12:08:10;;;;;;;5.57;5.00;;;;;;;29.62;28.52;98246.56;5030973;28;20498;-76
2023/07/17 12:10:37;;;;;;;5.60;5.00;;;;;;;29.34;28.99;98238.38;5028618;28;20455;-75
2023/07/17 12:13:04;;;;;;;5.50;4.53;;;;;;;30.23;27.88;98212.13;5037386;28;20467;-71
2023/07/17 12:15:32;;;;;;;5.17;4.50;;;;;;;30.55;28.46;98224.81;5039696;28;20469;-73
2023/07/17 12:17:59;;;;;;;4.67;4.27;;;;;;;31.25;26.92;98215.25;5036654;28;20465;-75
2023/07/17 12:20:28;;;;;;;6.03;4.70;;;;;;;29.56;29.29;98228.34;5033019;28;20466;-77
2023/07/17 12:22:57;;;;;;;5.10;4.60;;;;;;;28.74;30.12;98213.69;5027108;28;24166;-78
2023/07/17 12:25:25;;;;;;;6.03;5.10;;;;;;;28.35;30.82;98222.69;5042035;28;20850;-76
2023/07/17 12:27:52;;;;;;;5.20;4.70;;;;;;;28.13;31.24;98216.22;5041872;28;20544;-77
2023/07/17 12:30:22;;;;;;;5.10;4.60;;;;;;;28.03;31.39;98225.63;5047338;28;20447;-77
2023/07/17 12:32:49;;;;;;;5.57;4.30;;;;;;;27.67;32.16;98218.00;5038669;28;20564;-77
2023/07/17 12:35:16;;;;;;;5.03;4.47;;;;;;;27.70;31.80;98219.34;5040992;28;20491;-77
2023/07/17 12:37:44;;;;;;;5.50;4.70;;;;;;;27.35;33.18;98210.53;5031735;28;20565;-76
2023/07/17 12:40:11;;;;;;;5.00;4.23;;;;;;;27.56;32.91;98215.72;5033952;28;20469;-76
2023/07/17 12:42:39;;;;;;;4.83;4.30;;;;;;;27.28;32.82;98209.31;5039695;28;20957;-76
2023/07/17 12:45:07;;;;;;;5.00;4.30;;;;;;;27.19;33.15;98202.81;5045338;28;20509;-75
2023/07/17 12:47:33;;;;;;;8.50;5.17;;;;;;;27.23;33.43;98196.34;5046552;28;21013;-75
2023/07/17 12:50:00;;;;;;;7.13;4.43;;;;;;;27.59;33.28;98199.28;5048133;28;20455;-75
2023/07/17 12:52:27;;;;;;;5.23;4.73;;;;;;;27.41;33.38;98200.97;5046977;28;20482;-75
2023/07/17 12:54:56;;;;;;;8.33;5.10;;;;;;;27.54;32.90;98193.78;5044571;28;20613;-75
2023/07/17 12:57:23;;;;;;;6.67;5.20;;;;;;;27.31;33.04;98198.38;5037199;28;20566;-76
2023/07/17 12:59:49;;;;;;;4.60;4.20;;;;;;;27.19;33.28;98192.53;5035089;28;20460;-75
2023/07/17 13:02:16;;;;;;;5.60;4.63;;;;;;;27.19;33.87;98192.53;5030080;28;21775;-74
2023/07/17 13:04:43;;;;;;;5.90;4.67;;;;;;;26.87;33.91;98198.06;5034313;28;20811;-75
2023/07/17 13:07:10;;;;;;;4.47;4.17;;;;;;;26.66;34.17;98194.81;5042768;28;20956;-75
2023/07/17 13:09:37;;;;;;;6.63;4.90;;;;;;;26.81;34.24;98196.50;5032127;28;20839;-75
2023/07/17 13:12:06;;;;;;;6.17;5.53;;;;;;;26.69;34.07;98192.25;5042573;28;20474;-76
2023/07/17 13:14:33;;;;;;;4.83;4.20;;;;;;;26.76;34.84;98192.69;5039008;28;20512;-75
2023/07/17 13:17:00;;;;;;;5.50;5.00;;;;;;;26.96;34.28;98188.78;5032651;28;21038;-76
2023/07/17 13:19:26;;;;;;;6.20;4.87;;;;;;;26.70;34.20;98182.78;5041128;28;20447;-76